createdAt,value
2019-03-23T00:00:57.231Z,51.90
2019-03-23T00:03:26.775Z,51.30
2019-03-23T00:05:56.152Z,51.30
2019-03-23T00:08:25.602Z,51.70
2019-03-23T00:10:55.532Z,52.60
2019-03-23T00:30:47.693Z,61.10
2019-03-23T00:33:17.066Z,60.90
2019-03-23T00:35:46.417Z,61.70
2019-03-23T00:38:15.788Z,61.30
2019-03-23T00:40:45.158Z,62.00
2019-03-23T00:43:14.675Z,63.60
2019-03-23T00:45:44.101Z,64.30
2019-03-23T00:48:13.526Z,65.30
2019-03-23T00:50:42.933Z,66.80
2019-03-23T00:53:12.365Z,67.20
2019-03-23T00:55:41.944Z,68.60
2019-03-23T00:58:11.367Z,67.50
2019-03-23T01:00:40.924Z,69.00
2019-03-23T01:03:10.417Z,69.30
2019-03-23T01:05:39.880Z,70.80
2019-03-23T01:08:09.657Z,73.70
2019-03-23T01:10:39.390Z,75.40
2019-03-23T01:13:08.828Z,77.30
2019-03-23T01:15:38.333Z,79.10
2019-03-23T01:18:08.112Z,80.20
2019-03-23T01:20:37.559Z,80.70
2019-03-23T01:23:06.958Z,81.40
2019-03-23T01:25:39.101Z,82.70
2019-03-23T01:28:08.481Z,81.60
2019-03-23T01:30:37.836Z,80.20
2019-03-23T01:33:07.205Z,81.10
2019-03-23T01:35:36.574Z,80.50
2019-03-23T01:38:05.980Z,81.10
2019-03-23T01:40:36.457Z,81.60
2019-03-23T01:43:05.943Z,81.60
2019-03-23T01:45:35.343Z,82.80
2019-03-23T01:48:04.892Z,82.70
2019-03-23T01:50:34.236Z,84.00
2019-03-23T01:53:04.060Z,84.10
2019-03-23T01:55:33.559Z,85.00
2019-03-23T01:58:02.928Z,86.00
2019-03-23T02:00:32.493Z,86.00
2019-03-23T02:03:01.885Z,85.20
2019-03-23T02:05:31.825Z,84.90
2019-03-23T02:08:01.471Z,85.50
2019-03-23T02:10:30.875Z,86.20
2019-03-23T02:13:00.212Z,86.40
2019-03-23T02:15:29.637Z,87.70
2019-03-23T02:17:59.090Z,88.60
2019-03-23T02:20:28.509Z,89.40
2019-03-23T02:22:57.879Z,90.60
2019-03-23T02:25:27.318Z,91.20
2019-03-23T02:27:56.993Z,92.30
2019-03-23T02:30:26.663Z,93.20
2019-03-23T02:32:56.014Z,93.90
2019-03-23T02:35:25.384Z,94.40
2019-03-23T02:37:54.768Z,95.40
2019-03-23T02:51:03.035Z,99.60
2019-03-23T02:53:32.390Z,99.90
2019-03-23T02:56:01.805Z,99.90
2019-03-23T02:58:31.237Z,99.90
2019-03-23T03:01:00.655Z,99.90
2019-03-23T03:03:30.075Z,99.90
2019-03-23T03:05:59.817Z,99.90
2019-03-23T03:08:29.360Z,99.90
2019-03-23T03:10:58.704Z,99.90
2019-03-23T03:13:28.779Z,99.90
2019-03-23T03:15:58.134Z,99.90
2019-03-23T03:18:27.585Z,99.90
2019-03-23T03:20:57.010Z,99.90
2019-03-23T03:23:26.399Z,99.90
2019-03-23T03:25:55.781Z,99.90
2019-03-23T03:28:25.161Z,99.90
2019-03-23T03:30:54.611Z,99.90
2019-03-23T03:33:23.970Z,99.90
2019-03-23T03:35:55.072Z,99.90
2019-03-23T03:38:24.424Z,99.90
2019-03-23T03:40:53.872Z,99.90
2019-03-23T03:43:23.324Z,99.90
2019-03-23T03:45:52.701Z,99.90
2019-03-23T03:48:22.057Z,99.90
2019-03-23T03:50:51.439Z,99.90
2019-03-23T03:53:20.850Z,99.90
2019-03-23T03:55:50.337Z,99.90
2019-03-23T03:58:19.677Z,99.90
2019-03-23T04:00:49.074Z,99.90
2019-03-23T04:03:18.743Z,99.90
2019-03-23T04:05:48.089Z,99.90
2019-03-23T04:08:17.447Z,99.90
2019-03-23T04:10:47.127Z,99.90
2019-03-23T04:13:16.506Z,99.90
2019-03-23T04:15:45.928Z,99.90
2019-03-23T04:18:15.571Z,99.90
2019-03-23T04:20:45.096Z,99.90
2019-03-23T04:23:14.832Z,99.90
2019-03-23T04:25:44.239Z,99.90
2019-03-23T04:28:13.620Z,99.90
2019-03-23T04:30:43.305Z,99.90
2019-03-23T04:33:12.732Z,99.90
2019-03-23T04:35:42.178Z,99.90
2019-03-23T04:38:22.260Z,99.90
2019-03-23T04:40:42.578Z,99.90
2019-03-23T04:43:11.984Z,99.90
2019-03-23T04:45:41.360Z,99.90
2019-03-23T04:48:10.862Z,99.90
2019-03-23T04:50:41.401Z,99.90
2019-03-23T04:53:10.750Z,99.90
2019-03-23T04:55:40.307Z,99.90
2019-03-23T04:58:09.683Z,99.90
2019-03-23T05:00:39.042Z,99.90
2019-03-23T05:03:08.502Z,99.90
2019-03-23T05:05:37.867Z,99.90
2019-03-23T05:08:07.282Z,99.90
2019-03-23T05:10:36.801Z,99.90
2019-03-23T05:13:06.224Z,99.90
2019-03-23T05:15:35.646Z,99.90
2019-03-23T05:18:05.195Z,99.90
2019-03-23T05:20:34.630Z,99.90
2019-03-23T05:23:04.553Z,99.90
2019-03-23T05:25:34.062Z,99.90
2019-03-23T05:28:03.530Z,99.90
2019-03-23T05:30:33.369Z,99.90
2019-03-23T05:33:02.715Z,99.90
2019-03-23T05:35:32.098Z,99.90
2019-03-23T05:38:01.450Z,99.90
2019-03-23T05:40:30.871Z,99.90
2019-03-23T05:43:00.247Z,99.90
2019-03-23T05:45:29.612Z,99.90
2019-03-23T05:47:59.010Z,99.90
2019-03-23T05:50:28.360Z,99.90
2019-03-23T05:52:57.711Z,99.90
2019-03-23T05:55:27.824Z,99.90
2019-03-23T05:57:57.289Z,99.90
2019-03-23T06:00:26.707Z,99.90
2019-03-23T06:02:56.117Z,99.90
2019-03-23T06:05:25.532Z,99.90
2019-03-23T06:07:55.334Z,99.90
2019-03-23T06:10:25.230Z,99.90
2019-03-23T06:12:55.335Z,99.90
2019-03-23T06:15:24.885Z,99.90
2019-03-23T06:17:54.264Z,99.90
2019-03-23T06:20:23.627Z,99.90
2019-03-23T06:22:53.187Z,99.90
2019-03-23T06:25:22.879Z,99.90
2019-03-23T06:27:52.337Z,99.90
2019-03-23T06:30:21.675Z,99.90
2019-03-23T06:32:51.062Z,99.90
2019-03-23T06:35:20.546Z,99.90
2019-03-23T06:37:50.079Z,99.90
2019-03-23T06:40:19.561Z,99.90
2019-03-23T06:42:59.147Z,99.90
2019-03-23T06:45:20.515Z,99.90
2019-03-23T06:47:49.871Z,99.90
2019-03-23T06:50:19.394Z,99.90
2019-03-23T06:52:49.106Z,99.90
2019-03-23T06:55:18.564Z,99.90
2019-03-23T06:57:48.316Z,99.90
2019-03-23T07:00:18.202Z,99.90
2019-03-23T07:02:48.062Z,99.90
2019-03-23T07:05:17.490Z,99.90
2019-03-23T07:07:47.068Z,99.90
2019-03-23T07:10:17.094Z,99.90
2019-03-23T07:12:46.566Z,99.90
2019-03-23T07:15:20.325Z,99.90
2019-03-23T07:17:47.976Z,99.90
2019-03-23T07:20:17.569Z,99.90
2019-03-23T07:22:47.360Z,99.90
2019-03-23T07:25:16.783Z,99.90
2019-03-23T07:27:46.588Z,99.90
2019-03-23T07:30:16.389Z,99.90
2019-03-23T07:32:46.373Z,99.90
2019-03-23T07:35:16.116Z,99.90
2019-03-23T07:37:45.645Z,99.90
2019-03-23T07:40:15.221Z,99.90
2019-03-23T07:42:44.741Z,99.90
2019-03-23T07:45:15.698Z,99.90
2019-03-23T07:47:45.135Z,99.90
2019-03-23T07:50:15.305Z,99.90
2019-03-23T07:52:45.279Z,99.90
2019-03-23T07:55:16.019Z,99.90
2019-03-23T07:57:45.558Z,99.90
2019-03-23T08:00:16.931Z,99.90
2019-03-23T08:02:46.480Z,99.90
2019-03-23T08:05:17.022Z,99.90
2019-03-23T08:07:46.776Z,99.90
2019-03-23T08:10:35.161Z,99.90
2019-03-23T08:13:04.903Z,99.90
2019-03-23T08:15:34.417Z,99.90
2019-03-23T08:18:03.907Z,99.90
2019-03-23T08:20:33.758Z,99.90
2019-03-23T08:23:03.253Z,99.90
2019-03-23T08:25:32.667Z,99.90
2019-03-23T08:28:02.144Z,99.90
2019-03-23T08:30:31.629Z,99.90
2019-03-23T08:33:01.068Z,99.90
2019-03-23T08:35:30.494Z,99.90
2019-03-23T08:38:00.169Z,99.90
2019-03-23T08:40:29.899Z,99.90
2019-03-23T08:42:59.336Z,99.90
2019-03-23T08:45:28.772Z,99.90
2019-03-23T08:47:58.287Z,99.90
2019-03-23T08:50:28.071Z,99.90
2019-03-23T08:52:57.427Z,99.90
2019-03-23T08:55:27.322Z,99.90
2019-03-23T08:57:56.766Z,99.90
2019-03-23T09:00:26.166Z,99.90
2019-03-23T09:02:55.631Z,99.90
2019-03-23T09:05:25.215Z,99.90
2019-03-23T09:07:55.340Z,99.90
2019-03-23T09:10:25.088Z,99.90
2019-03-23T09:12:54.931Z,99.90
2019-03-23T09:15:24.653Z,99.90
2019-03-23T09:17:54.092Z,99.90
2019-03-23T09:20:24.381Z,99.90
2019-03-23T09:22:53.756Z,98.40
2019-03-23T09:25:23.130Z,98.20
2019-03-23T09:27:52.658Z,96.60
2019-03-23T09:30:22.127Z,96.50
2019-03-23T09:32:51.504Z,96.50
2019-03-23T09:35:21.411Z,95.40
2019-03-23T09:37:50.920Z,95.00
2019-03-23T09:40:20.358Z,95.40
2019-03-23T09:42:50.169Z,92.50
2019-03-23T09:45:19.840Z,90.70
2019-03-23T09:47:49.238Z,91.00
2019-03-23T09:50:18.700Z,92.40
2019-03-23T09:52:48.078Z,89.40
2019-03-23T09:55:18.275Z,89.90
2019-03-23T09:57:47.718Z,91.40
2019-03-23T10:00:17.856Z,90.50
2019-03-23T10:02:47.384Z,89.70
2019-03-23T10:05:17.731Z,89.50
2019-03-23T10:07:47.144Z,87.50
2019-03-23T10:10:21.814Z,87.90
2019-03-23T10:12:48.096Z,89.40
2019-03-23T10:15:18.173Z,86.80
2019-03-23T10:17:47.669Z,85.80
2019-03-23T10:20:17.632Z,87.20
2019-03-23T10:22:47.028Z,86.50
2019-03-23T10:25:16.538Z,88.80
2019-03-23T10:27:46.156Z,89.60
2019-03-23T10:30:15.689Z,89.40
2019-03-23T10:32:45.159Z,89.80
2019-03-23T10:35:17.765Z,90.70
2019-03-23T10:37:47.485Z,89.70
2019-03-23T10:40:17.410Z,87.40
2019-03-23T10:42:46.886Z,86.70
2019-03-23T10:45:16.434Z,85.80
2019-03-23T10:47:50.858Z,85.70
2019-03-23T10:50:20.387Z,85.50
2019-03-23T10:52:50.167Z,87.00
2019-03-23T10:55:19.733Z,88.20
2019-03-23T10:57:49.217Z,85.50
2019-03-23T11:00:18.946Z,84.00
2019-03-23T11:02:48.421Z,84.00
2019-03-23T11:05:18.566Z,84.50
2019-03-23T11:07:48.375Z,83.60
2019-03-23T11:10:18.039Z,85.30
2019-03-23T11:12:47.546Z,87.10
2019-03-23T11:15:16.920Z,89.50
2019-03-23T11:17:46.624Z,86.00
2019-03-23T11:20:16.262Z,85.10
2019-03-23T11:22:45.763Z,83.00
2019-03-23T11:25:16.174Z,83.50
2019-03-23T11:27:45.932Z,86.30
2019-03-23T11:30:15.679Z,87.20
2019-03-23T11:32:45.055Z,87.30
2019-03-23T11:35:14.600Z,89.40
2019-03-23T11:37:44.372Z,90.10
2019-03-23T11:40:14.048Z,89.30
2019-03-23T11:42:49.881Z,87.70
2019-03-23T11:45:14.832Z,87.00
2019-03-23T11:47:44.234Z,88.10
2019-03-23T11:50:13.725Z,88.40
2019-03-23T11:52:43.163Z,88.70
2019-03-23T11:55:13.003Z,90.10
2019-03-23T11:57:43.074Z,85.20
2019-03-23T12:00:13.555Z,84.80
2019-03-23T12:02:43.401Z,82.60
2019-03-23T12:05:13.355Z,81.00
2019-03-23T12:07:43.063Z,79.80
2019-03-23T12:10:12.918Z,81.00
2019-03-23T12:12:43.622Z,80.60
2019-03-23T12:15:13.936Z,80.20
2019-03-23T12:17:43.614Z,79.00
2019-03-23T12:20:13.302Z,79.80
2019-03-23T12:22:42.783Z,77.10
2019-03-23T12:25:12.394Z,78.20
2019-03-23T12:27:42.203Z,80.00
2019-03-23T12:30:13.956Z,75.80
2019-03-23T12:32:43.496Z,78.80
2019-03-23T12:35:13.582Z,74.90
2019-03-23T12:37:43.128Z,73.60
2019-03-23T12:40:12.846Z,65.70
2019-03-23T12:42:42.263Z,63.00
2019-03-23T12:45:12.570Z,60.90
2019-03-23T12:47:42.376Z,60.00
2019-03-23T12:50:12.475Z,58.80
2019-03-23T12:52:41.887Z,54.40
2019-03-23T12:55:11.935Z,54.10
2019-03-23T12:57:41.730Z,57.20
2019-03-23T13:00:12.271Z,64.10
2019-03-23T13:02:41.741Z,62.50
2019-03-23T13:05:11.450Z,59.90
2019-03-23T13:07:41.427Z,58.60
2019-03-23T13:10:11.681Z,54.80
2019-03-23T13:12:41.558Z,50.20
2019-03-23T13:15:11.928Z,50.70
2019-03-23T13:17:41.658Z,52.40
2019-03-23T13:20:12.459Z,51.90
2019-03-23T13:22:41.989Z,49.00
2019-03-23T13:25:13.333Z,49.20
2019-03-23T13:27:42.851Z,47.40
2019-03-23T13:30:13.043Z,47.00
2019-03-23T13:32:42.930Z,50.00
2019-03-23T13:35:12.759Z,46.40
2019-03-23T13:37:42.518Z,44.80
2019-03-23T13:40:12.310Z,45.40
2019-03-23T13:42:41.862Z,44.20
2019-03-23T13:45:11.938Z,43.90
2019-03-23T13:47:41.483Z,42.80
2019-03-23T13:50:12.770Z,48.20
2019-03-23T13:52:42.447Z,45.90
2019-03-23T13:55:33.460Z,43.20
2019-03-23T13:58:13.715Z,44.60
2019-03-23T14:00:43.542Z,44.50
2019-03-23T14:03:13.155Z,47.50
2019-03-23T14:05:42.739Z,46.40
2019-03-23T14:08:12.212Z,45.20
2019-03-23T14:10:41.678Z,46.30
2019-03-23T14:13:11.110Z,45.40
2019-03-23T14:15:40.568Z,43.80
2019-03-23T14:18:10.059Z,45.70
2019-03-23T14:20:39.546Z,48.00
2019-03-23T14:23:09.029Z,46.30
2019-03-23T14:25:38.386Z,43.60
2019-03-23T14:28:08.262Z,44.40
2019-03-23T14:30:38.008Z,43.00
2019-03-23T14:33:07.442Z,47.90
2019-03-23T14:35:37.212Z,47.20
2019-03-23T14:38:06.704Z,45.50
2019-03-23T14:40:36.539Z,44.60
2019-03-23T14:43:06.354Z,42.10
2019-03-23T14:45:37.052Z,41.20
2019-03-23T14:48:06.662Z,41.50
2019-03-23T14:50:36.407Z,41.40
2019-03-23T14:53:06.238Z,38.60
2019-03-23T14:55:37.440Z,39.90
2019-03-23T14:58:07.099Z,44.40
2019-03-23T15:00:36.737Z,42.70
2019-03-23T15:03:06.290Z,42.10
2019-03-23T15:05:35.743Z,40.00
2019-03-23T15:08:05.301Z,40.60
2019-03-23T15:10:35.239Z,39.90
2019-03-23T15:13:04.795Z,44.30
2019-03-23T15:15:34.220Z,47.90
2019-03-23T15:18:13.227Z,46.80
2019-03-23T15:20:42.623Z,49.00
2019-03-23T15:23:12.198Z,48.80
2019-03-23T15:25:41.819Z,50.30
2019-03-23T15:28:12.090Z,49.90
2019-03-23T15:30:44.803Z,48.70
2019-03-23T15:33:14.268Z,50.40
2019-03-23T15:35:43.769Z,51.50
2019-03-23T15:38:13.381Z,53.90
2019-03-23T15:40:42.739Z,55.20
2019-03-23T15:43:12.235Z,55.90
2019-03-23T15:45:41.705Z,55.60
2019-03-23T15:48:11.391Z,56.90
2019-03-23T15:50:41.119Z,57.40
2019-03-23T15:53:10.731Z,59.00
2019-03-23T15:55:40.145Z,60.80
2019-03-23T15:58:09.641Z,61.60
2019-03-23T16:00:39.006Z,63.50
2019-03-23T16:03:08.578Z,65.90
2019-03-23T16:05:38.030Z,67.90
2019-03-23T16:08:07.476Z,67.90
2019-03-23T16:10:36.835Z,67.20
2019-03-23T16:13:06.283Z,67.90
2019-03-23T16:15:35.674Z,70.20
2019-03-23T16:18:05.163Z,71.20
2019-03-23T16:20:34.582Z,74.40
2019-03-23T16:23:03.999Z,76.40
2019-03-23T16:25:33.614Z,77.80
2019-03-23T16:28:03.087Z,78.70
2019-03-23T16:30:33.570Z,81.20
2019-03-23T16:33:03.227Z,82.60
2019-03-23T16:35:33.402Z,84.70
2019-03-23T16:38:02.874Z,85.80
2019-03-23T16:40:32.346Z,87.40
2019-03-23T16:43:02.073Z,88.10
2019-03-23T16:45:31.535Z,87.40
2019-03-23T16:48:00.957Z,87.60
2019-03-23T16:50:30.395Z,88.80
2019-03-23T16:52:59.831Z,89.20
2019-03-23T16:55:29.202Z,90.20
2019-03-23T16:57:58.619Z,90.60
2019-03-23T17:00:37.568Z,91.00
2019-03-23T17:03:07.593Z,91.30
2019-03-23T17:05:37.057Z,91.10
2019-03-23T17:08:06.694Z,91.20
2019-03-23T17:10:36.233Z,91.60
2019-03-23T17:13:05.763Z,92.20
2019-03-23T17:15:35.391Z,92.70
2019-03-23T17:18:05.308Z,92.90
2019-03-23T17:20:34.873Z,93.00
2019-03-23T17:23:04.379Z,93.30
2019-03-23T17:25:34.189Z,93.50
2019-03-23T17:28:03.539Z,93.60
2019-03-23T17:30:32.995Z,93.70
2019-03-23T17:33:02.493Z,93.70
2019-03-23T17:35:31.903Z,94.20
2019-03-23T17:38:01.374Z,94.80
2019-03-23T17:40:30.778Z,94.70
2019-03-23T17:43:05.971Z,94.60
2019-03-23T17:45:31.327Z,94.60
2019-03-23T17:48:00.802Z,95.00
2019-03-23T17:50:30.660Z,95.30
2019-03-23T17:53:00.230Z,95.30
2019-03-23T17:55:29.734Z,95.30
2019-03-23T17:57:59.197Z,95.10
2019-03-23T18:00:29.613Z,95.10
2019-03-23T18:02:59.148Z,95.20
2019-03-23T18:05:28.647Z,95.40
2019-03-23T18:07:58.093Z,95.50
2019-03-23T18:10:28.356Z,95.60
2019-03-23T18:12:58.566Z,95.90
2019-03-23T18:15:28.209Z,95.60
2019-03-23T18:17:58.102Z,95.70
2019-03-23T18:20:27.953Z,95.70
2019-03-23T18:22:57.477Z,95.90
2019-03-23T18:25:26.978Z,95.80
2019-03-23T18:27:56.574Z,95.70
2019-03-23T18:30:44.776Z,95.80
2019-03-23T18:33:14.563Z,95.40
2019-03-23T18:35:44.142Z,95.70
2019-03-23T18:38:13.677Z,95.70
2019-03-23T18:40:43.337Z,95.70
2019-03-23T18:43:13.260Z,95.60
2019-03-23T18:45:42.813Z,95.60
2019-03-23T18:48:12.455Z,95.00
2019-03-23T18:50:42.868Z,95.30
2019-03-23T18:53:12.686Z,95.40
2019-03-23T18:55:42.528Z,95.80
2019-03-23T18:58:12.112Z,95.40
2019-03-23T19:00:42.849Z,95.50
2019-03-23T19:03:12.735Z,95.50
2019-03-23T19:05:42.347Z,95.10
2019-03-23T19:08:12.253Z,95.20
2019-03-23T19:10:42.108Z,95.60
2019-03-23T19:13:11.939Z,95.30
2019-03-23T19:15:41.495Z,95.60
2019-03-23T19:18:10.924Z,96.30
2019-03-23T19:20:40.418Z,96.60
2019-03-23T19:23:09.944Z,96.80
2019-03-23T19:25:39.928Z,97.10
2019-03-23T19:28:09.493Z,96.80
2019-03-23T19:30:38.993Z,97.00
2019-03-23T19:33:08.759Z,97.10
2019-03-23T19:35:38.318Z,97.00
2019-03-23T19:38:08.086Z,97.10
2019-03-23T19:40:37.604Z,97.10
2019-03-23T19:43:07.154Z,97.40
2019-03-23T19:45:36.588Z,97.20
2019-03-23T19:48:06.119Z,97.10
2019-03-23T19:50:36.095Z,97.40
2019-03-23T19:53:05.630Z,97.50
2019-03-23T19:55:35.149Z,97.30
2019-03-23T19:58:04.758Z,97.10
2019-03-23T20:00:34.176Z,97.10
2019-03-23T20:03:03.587Z,97.30
2019-03-23T20:05:33.385Z,97.10
2019-03-23T20:08:02.967Z,97.20
2019-03-23T20:10:32.455Z,97.20
2019-03-23T20:13:02.111Z,97.40
2019-03-23T20:15:32.006Z,97.50
2019-03-23T20:18:01.666Z,97.30
2019-03-23T20:20:31.115Z,97.60
2019-03-23T20:23:00.504Z,97.10
2019-03-23T20:25:30.247Z,96.70
2019-03-23T20:27:59.889Z,97.10
2019-03-23T20:30:29.350Z,97.30
2019-03-23T20:32:58.819Z,97.10
2019-03-23T20:35:28.196Z,97.60
2019-03-23T20:37:57.568Z,97.60
2019-03-23T20:40:26.979Z,97.80
2019-03-23T20:42:56.435Z,98.00
2019-03-23T20:45:31.077Z,97.30
2019-03-23T20:48:00.818Z,97.50
2019-03-23T20:50:33.424Z,97.10
2019-03-23T20:53:03.036Z,97.50
2019-03-23T20:55:32.782Z,97.70
2019-03-23T20:58:02.335Z,97.80
2019-03-23T21:00:32.096Z,97.40
2019-03-23T21:03:01.691Z,97.40
2019-03-23T21:05:34.194Z,97.10
2019-03-23T21:08:02.447Z,97.10
2019-03-23T21:10:31.826Z,97.10
2019-03-23T21:13:01.359Z,98.30
2019-03-23T21:15:30.907Z,98.00
2019-03-23T21:18:00.297Z,97.70
2019-03-23T21:20:29.731Z,97.80
2019-03-23T21:22:59.649Z,97.70
2019-03-23T21:25:29.102Z,98.00
2019-03-23T21:27:58.564Z,98.60
2019-03-23T21:30:28.048Z,98.40
2019-03-23T21:32:57.408Z,98.40
2019-03-23T21:35:26.780Z,98.60
2019-03-23T21:37:56.287Z,99.00
2019-03-23T21:40:25.680Z,99.90
2019-03-23T21:42:55.060Z,99.90
2019-03-23T21:45:24.547Z,99.90
2019-03-23T21:47:54.067Z,99.90
2019-03-23T21:50:23.731Z,99.90
2019-03-23T21:52:53.186Z,99.90
2019-03-23T21:55:22.563Z,99.90
2019-03-23T21:57:52.357Z,99.90
2019-03-23T22:00:32.999Z,99.90
2019-03-23T22:03:03.601Z,99.90
2019-03-23T22:05:33.159Z,99.90
2019-03-23T22:08:02.748Z,99.90
2019-03-23T22:10:32.174Z,99.90
2019-03-23T22:13:01.615Z,99.90
2019-03-23T22:15:33.095Z,99.90
2019-03-23T22:18:02.830Z,99.90
2019-03-23T22:20:32.321Z,99.90
2019-03-23T22:23:02.019Z,99.90
2019-03-23T22:25:31.478Z,99.90
2019-03-23T22:28:00.926Z,99.90
2019-03-23T22:30:30.403Z,99.90
2019-03-23T22:32:59.815Z,99.90
2019-03-23T22:35:29.272Z,99.90
2019-03-23T22:37:58.690Z,99.90
2019-03-23T22:40:28.376Z,99.90
2019-03-23T22:42:57.778Z,99.90
2019-03-23T22:45:27.496Z,99.90
2019-03-23T22:47:56.877Z,99.90
2019-03-23T22:50:26.471Z,99.90
2019-03-23T22:52:55.840Z,99.90
2019-03-23T22:55:25.350Z,99.90
2019-03-23T22:57:54.880Z,99.90
2019-03-23T23:00:44.276Z,99.90
2019-03-23T23:03:13.986Z,99.90
2019-03-23T23:05:44.525Z,99.90
2019-03-23T23:08:14.047Z,99.90
2019-03-23T23:10:43.620Z,99.90
2019-03-23T23:13:13.160Z,99.90
2019-03-23T23:15:42.687Z,99.90
2019-03-23T23:18:12.286Z,99.90
2019-03-23T23:20:41.985Z,99.90
2019-03-23T23:23:11.462Z,99.90
2019-03-23T23:25:40.934Z,99.90
2019-03-23T23:28:10.303Z,99.90
2019-03-23T23:30:39.691Z,99.90
2019-03-23T23:33:09.241Z,99.90
2019-03-23T23:35:39.014Z,99.90
2019-03-23T23:38:08.443Z,99.90
2019-03-23T23:40:37.925Z,99.90
2019-03-23T23:43:07.396Z,99.90
2019-03-23T23:45:37.128Z,99.90
2019-03-23T23:48:06.621Z,99.90
2019-03-23T23:50:36.055Z,99.90
2019-03-23T23:53:05.604Z,99.90
2019-03-23T23:55:35.250Z,99.90
2019-03-23T23:58:04.763Z,99.90
